Time;durP1;ratioP1;P1;durP2;ratioP2;P2;SDS_P1;SDS_P2;PMS_P1;PMS_P2;Temp;Humidity;BMP_temperature;BMP_pressure;BME280_temperature;BME280_humidity;BME280_pressure;Samples;Min_cycle;Max_cycle;Signal;HPM_P1;HPM_P2
2021/08/25 00:01:15;;;;;;;7.63;3.10;;;13.30;81.90;;;;;;5090135;28;20422;-81
2021/08/25 00:03:40;;;;;;;5.53;2.50;;;13.30;82.00;;;;;;5091309;28;20413;-82
2021/08/25 00:06:06;;;;;;;6.13;2.60;;;13.30;81.80;;;;;;5091511;28;20462;-80
2021/08/25 00:08:32;;;;;;;7.00;3.10;;;13.30;81.80;;;;;;5091172;28;20397;-81
2021/08/25 00:10:57;;;;;;;4.93;2.38;;;13.20;81.90;;;;;;5090896;28;20447;-80
2021/08/25 00:13:23;;;;;;;7.20;2.70;;;13.10;82.00;;;;;;5091177;28;20380;-81
2021/08/25 00:15:48;;;;;;;5.43;2.40;;;13.10;82.10;;;;;;5085597;28;20774;-80
2021/08/25 00:18:14;;;;;;;5.93;2.40;;;13.00;82.40;;;;;;5081368;28;20398;-82
2021/08/25 00:20:40;;;;;;;7.43;2.92;;;13.10;82.20;;;;;;5091463;28;20757;-80
2021/08/25 00:23:06;;;;;;;6.73;2.47;;;13.10;82.20;;;;;;5083619;28;20883;-80
2021/08/25 00:25:32;;;;;;;6.47;2.57;;;13.00;82.60;;;;;;5090942;28;20385;-80
2021/08/25 00:27:58;;;;;;;5.45;2.58;;;13.00;82.30;;;;;;5089828;28;20417;-80
2021/08/25 00:30:24;;;;;;;7.78;2.60;;;13.10;82.20;;;;;;5091431;28;20379;-80
2021/08/25 00:32:49;;;;;;;5.90;2.65;;;13.00;82.40;;;;;;5094975;28;20374;-85
2021/08/25 00:35:15;;;;;;;4.55;2.72;;;12.90;82.80;;;;;;5094875;28;20476;-83
2021/08/25 00:37:41;;;;;;;6.72;2.67;;;12.90;82.50;;;;;;5094783;28;20397;-79
2021/08/25 00:40:07;;;;;;;7.77;2.40;;;13.00;82.40;;;;;;5076527;28;20382;-80
2021/08/25 00:42:33;;;;;;;4.93;2.72;;;12.90;82.20;;;;;;5076639;28;20382;-80
2021/08/25 00:45:00;;;;;;;6.32;3.30;;;12.90;82.80;;;;;;5094657;28;20730;-80
2021/08/25 00:47:26;;;;;;;6.80;2.60;;;12.90;82.60;;;;;;5076279;28;20409;-83
2021/08/25 00:49:51;;;;;;;5.40;3.00;;;12.80;82.60;;;;;;5094183;28;20378;-80
2021/08/25 00:52:17;;;;;;;10.87;3.03;;;12.80;82.50;;;;;;5090735;28;20846;-80
2021/08/25 00:54:42;;;;;;;5.38;2.83;;;12.80;82.40;;;;;;5094467;28;20374;-80
2021/08/25 00:57:08;;;;;;;5.63;2.73;;;12.70;82.70;;;;;;5094523;28;20461;-80
2021/08/25 00:59:34;;;;;;;7.60;3.05;;;12.80;82.50;;;;;;5093185;28;20425;-84
2021/08/25 01:02:25;;;;;;;5.30;2.70;;;12.70;82.60;;;;;;5094047;28;20382;-83
2021/08/25 01:04:57;;;;;;;7.38;2.63;;;12.70;82.70;;;;;;5092962;28;20382;-80
2021/08/25 01:07:23;;;;;;;8.30;2.83;;;12.70;82.60;;;;;;5094114;28;20874;-80
2021/08/25 01:09:50;;;;;;;5.80;2.75;;;12.60;83.10;;;;;;5094188;28;20400;-84
2021/08/25 01:12:18;;;;;;;3.92;2.20;;;12.60;83.20;;;;;;5092813;28;20759;-79
2021/08/25 01:14:44;;;;;;;5.32;2.88;;;12.50;83.30;;;;;;5094310;28;20418;-79
2021/08/25 01:17:10;;;;;;;5.87;2.50;;;12.50;83.00;;;;;;5094088;28;20390;-80
2021/08/25 01:19:47;;;;;;;4.32;2.33;;;12.60;82.70;;;;;;5094045;28;20414;-79
2021/08/25 01:22:17;;;;;;;5.57;2.70;;;12.50;83.00;;;;;;5094033;28;20413;-80
2021/08/25 01:24:44;;;;;;;6.80;2.83;;;12.40;83.10;;;;;;5093931;28;20906;-82
2021/08/25 01:27:11;;;;;;;6.10;2.35;;;12.40;83.20;;;;;;5092509;28;20398;-80
2021/08/25 01:29:37;;;;;;;5.20;2.70;;;12.40;83.10;;;;;;5086151;28;20418;-82
2021/08/25 01:32:03;;;;;;;11.20;2.33;;;12.40;82.90;;;;;;5083918;28;20417;-80
2021/08/25 01:34:28;;;;;;;5.30;3.10;;;12.40;83.10;;;;;;5093663;28;20481;-79
2021/08/25 01:36:55;;;;;;;7.03;2.80;;;12.40;83.20;;;;;;5093598;28;20393;-79
2021/08/25 01:39:21;;;;;;;4.80;2.42;;;12.30;83.10;;;;;;5093471;28;20378;-79
2021/08/25 01:41:48;;;;;;;7.15;2.97;;;12.30;83.20;;;;;;5093300;28;20434;-79
2021/08/25 01:44:13;;;;;;;6.95;2.90;;;12.30;83.00;;;;;;5091741;28;20386;-79
2021/08/25 01:46:41;;;;;;;4.17;2.50;;;12.30;83.40;;;;;;5092090;28;20374;-81
2021/08/25 01:49:12;;;;;;;5.13;2.90;;;12.30;83.40;;;;;;5093394;28;20436;-80
2021/08/25 01:51:39;;;;;;;5.57;2.60;;;12.30;83.30;;;;;;5072944;28;20856;-80
2021/08/25 01:54:05;;;;;;;4.85;2.75;;;12.30;83.40;;;;;;5073110;28;20391;-80
2021/08/25 01:56:31;;;;;;;10.83;2.83;;;12.20;83.60;;;;;;5073099;28;20371;-80
2021/08/25 01:58:57;;;;;;;7.10;3.27;;;12.20;83.70;;;;;;5055009;28;20481;-80
2021/08/25 02:01:23;;;;;;;5.78;2.67;;;12.20;83.70;;;;;;5073002;28;20383;-80
2021/08/25 02:03:49;;;;;;;5.03;2.80;;;12.20;83.40;;;;;;5054938;28;20388;-80
2021/08/25 02:06:14;;;;;;;6.87;3.00;;;12.30;83.30;;;;;;5072798;28;20379;-80
2021/08/25 02:08:40;;;;;;;5.60;2.88;;;12.30;83.40;;;;;;5092303;28;20475;-80
2021/08/25 02:11:06;;;;;;;5.57;2.35;;;12.20;83.60;;;;;;5092336;28;20386;-82
2021/08/25 02:13:31;;;;;;;6.67;2.87;;;12.20;83.60;;;;;;5099823;28;20471;-79
2021/08/25 02:15:57;;;;;;;6.67;2.70;;;12.10;83.70;;;;;;5092595;28;20394;-79
2021/08/25 02:18:25;;;;;;;4.63;2.47;;;12.10;83.60;;;;;;5092085;28;20413;-80
2021/08/25 02:20:51;;;;;;;9.82;2.75;;;12.10;83.80;;;;;;5092415;28;20413;-80
2021/08/25 02:23:17;;;;;;;8.27;2.55;;;12.10;83.70;;;;;;5092829;28;20410;-80
2021/08/25 02:25:42;;;;;;;4.97;2.43;;;12.10;83.80;;;;;;5092765;28;20389;-80
2021/08/25 02:28:08;;;;;;;5.13;2.97;;;12.00;83.60;;;;;;5092751;28;20739;-79
2021/08/25 02:30:33;;;;;;;5.78;2.85;;;12.00;83.70;;;;;;5074350;28;20468;-80
2021/08/25 02:33:00;;;;;;;6.18;2.75;;;12.00;83.70;;;;;;5092329;28;20382;-80
2021/08/25 02:35:25;;;;;;;6.20;2.95;;;11.90;83.90;;;;;;5074359;28;20414;-80
2021/08/25 02:37:51;;;;;;;7.00;3.00;;;12.00;83.80;;;;;;5092355;28;20429;-80
2021/08/25 02:40:17;;;;;;;7.17;3.17;;;12.00;84.10;;;;;;5092458;28;20374;-84
2021/08/25 02:42:43;;;;;;;4.57;2.80;;;11.90;84.30;;;;;;5074349;28;20867;-80
2021/08/25 02:45:09;;;;;;;4.83;2.83;;;12.00;83.90;;;;;;5074127;28;20396;-80
2021/08/25 02:47:35;;;;;;;7.90;2.90;;;11.90;83.90;;;;;;5090451;28;20454;-81
2021/08/25 02:50:01;;;;;;;5.13;2.78;;;11.90;84.20;;;;;;5090531;28;20393;-81
2021/08/25 02:52:26;;;;;;;4.97;2.67;;;11.90;84.20;;;;;;5092421;28;20370;-81
2021/08/25 02:54:52;;;;;;;6.85;2.80;;;11.90;84.30;;;;;;5087498;28;20378;-80
2021/08/25 02:57:18;;;;;;;7.40;2.70;;;11.90;84.30;;;;;;5092147;28;20382;-80
2021/08/25 02:59:43;;;;;;;8.83;2.73;;;11.80;84.30;;;;;;5091940;28;20382;-80
2021/08/25 03:02:09;;;;;;;6.57;3.47;;;11.80;84.40;;;;;;5092108;28;20390;-80
2021/08/25 03:04:34;;;;;;;7.35;2.80;;;11.80;84.30;;;;;;5092038;28;20378;-82
2021/08/25 03:07:00;;;;;;;6.80;3.35;;;11.90;84.30;;;;;;5091871;28;20935;-80
2021/08/25 03:09:26;;;;;;;10.27;2.83;;;11.90;84.50;;;;;;5092056;28;20421;-81
2021/08/25 03:11:51;;;;;;;6.70;3.15;;;11.80;84.30;;;;;;5091973;28;20382;-81
2021/08/25 03:14:17;;;;;;;9.67;3.60;;;11.70;84.60;;;;;;5069697;28;20399;-80
2021/08/25 03:16:42;;;;;;;5.30;2.80;;;11.70;84.50;;;;;;5083681;28;20382;-80
2021/08/25 03:19:08;;;;;;;6.35;3.35;;;11.60;84.60;;;;;;5086540;28;20456;-80
2021/08/25 03:21:34;;;;;;;7.28;3.20;;;11.60;84.60;;;;;;5092101;28;20382;-81
2021/08/25 03:23:59;;;;;;;5.93;3.00;;;11.60;84.30;;;;;;5090429;28;20389;-83
2021/08/25 03:26:25;;;;;;;7.63;3.00;;;11.60;84.70;;;;;;5091705;28;20414;-80
2021/08/25 03:28:51;;;;;;;6.45;3.05;;;11.60;84.50;;;;;;5091685;28;20406;-80
2021/08/25 03:31:16;;;;;;;11.03;3.13;;;11.60;84.60;;;;;;5091629;28;20386;-80
2021/08/25 03:33:42;;;;;;;5.47;3.00;;;11.60;84.40;;;;;;5091631;28;20455;-81
2021/08/25 03:36:07;;;;;;;4.23;2.50;;;11.60;84.40;;;;;;5090284;28;20386;-80
2021/08/25 03:38:33;;;;;;;8.07;2.97;;;11.60;84.40;;;;;;5091777;28;20411;-81
2021/08/25 03:40:59;;;;;;;6.82;2.65;;;11.50;84.80;;;;;;5090513;28;20434;-80
2021/08/25 03:43:24;;;;;;;7.97;3.33;;;11.50;84.60;;;;;;5091657;28;20726;-81
2021/08/25 03:45:50;;;;;;;7.10;3.25;;;11.60;84.40;;;;;;5091550;28;20370;-84
2021/08/25 03:48:16;;;;;;;6.37;3.20;;;11.60;84.50;;;;;;5091436;28;20440;-80
2021/08/25 03:50:41;;;;;;;8.57;3.37;;;11.50;84.50;;;;;;5091523;28;20435;-81
2021/08/25 03:53:07;;;;;;;7.40;3.10;;;11.40;84.50;;;;;;5091476;28;20419;-81
2021/08/25 03:55:32;;;;;;;7.07;3.63;;;11.40;84.80;;;;;;5091460;28;20447;-82
2021/08/25 03:57:58;;;;;;;8.83;3.10;;;11.40;85.00;;;;;;5090179;28;20455;-81
2021/08/25 04:00:23;;;;;;;9.10;3.40;;;11.40;84.70;;;;;;5091659;28;20374;-81
2021/08/25 04:02:49;;;;;;;8.40;3.03;;;11.40;84.60;;;;;;5091370;28;20379;-82
2021/08/25 04:05:14;;;;;;;8.00;3.43;;;11.40;84.70;;;;;;5090345;28;20475;-83
2021/08/25 04:07:40;;;;;;;7.10;3.50;;;11.40;84.60;;;;;;5093963;28;20403;-81
2021/08/25 04:10:06;;;;;;;7.87;3.37;;;11.40;84.60;;;;;;5095272;28;20519;-81
2021/08/25 04:12:31;;;;;;;6.10;3.30;;;11.30;84.70;;;;;;5095287;28;20859;-81
2021/08/25 04:14:57;;;;;;;7.67;3.27;;;11.30;84.80;;;;;;5093711;28;20401;-84
2021/08/25 04:17:23;;;;;;;8.38;3.45;;;11.30;85.20;;;;;;5093810;28;20465;-80
2021/08/25 04:19:48;;;;;;;7.43;3.40;;;11.30;85.20;;;;;;5095150;28;20519;-81
2021/08/25 04:22:14;;;;;;;8.10;3.80;;;11.30;84.70;;;;;;5093822;28;20396;-81
2021/08/25 04:24:39;;;;;;;7.90;3.67;;;11.30;85.10;;;;;;5095288;28;20389;-81
2021/08/25 04:27:05;;;;;;;7.35;3.17;;;11.20;85.00;;;;;;5093634;28;20408;-85
2021/08/25 04:29:31;;;;;;;6.82;3.60;;;11.30;85.00;;;;;;5093729;28;20386;-81
2021/08/25 04:31:56;;;;;;;8.37;3.77;;;11.20;85.10;;;;;;5094939;28;20720;-81
2021/08/25 04:34:22;;;;;;;13.57;3.80;;;11.30;85.10;;;;;;5093462;28;20834;-81
2021/08/25 04:36:47;;;;;;;6.97;3.55;;;11.30;84.80;;;;;;5093493;28;20389;-82
2021/08/25 04:39:13;;;;;;;9.93;3.83;;;11.30;85.00;;;;;;5094487;28;20795;-81
2021/08/25 04:41:38;;;;;;;9.83;3.57;;;11.10;85.60;;;;;;5094752;28;20381;-81
2021/08/25 04:44:05;;;;;;;9.63;3.57;;;11.10;85.40;;;;;;5094723;28;20431;-82
2021/08/25 04:46:31;;;;;;;8.10;3.15;;;11.10;85.30;;;;;;5094552;28;20386;-81
2021/08/25 04:48:56;;;;;;;11.43;4.28;;;11.10;85.20;;;;;;5093332;28;20774;-82
2021/08/25 04:51:22;;;;;;;10.00;3.95;;;11.20;85.20;;;;;;5094536;28;20477;-82
2021/08/25 04:53:47;;;;;;;6.77;3.63;;;11.20;85.20;;;;;;5094386;28;20374;-82
2021/08/25 04:56:13;;;;;;;6.87;3.43;;;11.20;84.90;;;;;;5094848;28;20382;-82
2021/08/25 04:58:39;;;;;;;8.03;3.60;;;11.20;85.30;;;;;;5094455;28;20378;-82
2021/08/25 05:01:05;;;;;;;7.03;3.67;;;11.10;85.60;;;;;;5093977;28;20434;-83
2021/08/25 05:03:30;;;;;;;9.38;3.70;;;11.10;85.40;;;;;;5094230;28;20386;-81
2021/08/25 05:05:56;;;;;;;5.87;3.63;;;11.20;85.20;;;;;;5094321;28;20377;-82
2021/08/25 05:08:22;;;;;;;7.28;3.70;;;11.10;85.60;;;;;;5093876;28;20759;-82
2021/08/25 05:10:48;;;;;;;9.80;3.93;;;11.10;85.50;;;;;;5094159;28;20486;-83
2021/08/25 05:13:14;;;;;;;7.47;3.63;;;11.20;85.50;;;;;;5094260;28;20783;-82
2021/08/25 05:15:43;;;;;;;10.27;4.40;;;11.20;85.70;;;;;;5093768;28;20398;-82
2021/08/25 05:18:09;;;;;;;8.18;4.25;;;11.20;85.70;;;;;;5092977;28;20477;-81
2021/08/25 05:20:35;;;;;;;9.07;4.00;;;11.20;86.10;;;;;;5093948;28;20465;-83
2021/08/25 05:23:00;;;;;;;11.73;4.05;;;11.20;85.80;;;;;;5094306;28;20418;-82
2021/08/25 05:25:26;;;;;;;10.18;4.22;;;11.20;85.90;;;;;;5093961;28;20667;-82
2021/08/25 05:27:52;;;;;;;8.60;4.20;;;11.30;86.00;;;;;;5092418;28;20412;-82
2021/08/25 05:30:18;;;;;;;7.97;4.03;;;11.30;86.30;;;;;;5093830;28;20386;-82
2021/08/25 05:32:45;;;;;;;12.00;5.38;;;11.30;85.90;;;;;;5093561;28;20447;-84
2021/08/25 05:35:11;;;;;;;12.60;5.10;;;11.30;85.90;;;;;;5093378;28;20413;-83
2021/08/25 05:37:36;;;;;;;7.33;4.60;;;11.40;86.00;;;;;;5109789;28;20640;-83
2021/08/25 05:40:04;;;;;;;9.47;5.00;;;11.40;86.00;;;;;;5093716;28;20728;-83
2021/08/25 05:42:29;;;;;;;9.40;4.35;;;11.40;85.70;;;;;;5075517;28;20374;-84
2021/08/25 05:44:56;;;;;;;8.63;4.07;;;11.40;85.60;;;;;;5074950;28;20963;-83
2021/08/25 05:47:21;;;;;;;8.93;4.47;;;11.40;85.80;;;;;;5075375;28;20402;-86
2021/08/25 05:49:47;;;;;;;10.32;4.55;;;11.40;86.20;;;;;;5075573;28;20404;-83
2021/08/25 05:52:12;;;;;;;9.57;4.80;;;11.50;85.80;;;;;;5075431;28;20434;-83
2021/08/25 05:54:38;;;;;;;7.47;4.20;;;11.50;86.00;;;;;;5093857;28;20390;-83
2021/08/25 05:57:03;;;;;;;8.27;3.92;;;11.60;86.20;;;;;;5093724;28;20378;-83
2021/08/25 05:59:29;;;;;;;11.55;4.43;;;11.60;86.20;;;;;;5093520;28;20402;-83
2021/08/25 06:01:54;;;;;;;8.23;4.10;;;11.60;86.40;;;;;;5093508;28;20417;-83
2021/08/25 06:04:20;;;;;;;7.37;3.63;;;11.60;86.20;;;;;;5093373;28;20483;-86
2021/08/25 06:06:45;;;;;;;7.15;3.78;;;11.60;86.60;;;;;;5074235;28;20390;-83
2021/08/25 06:09:11;;;;;;;9.95;4.35;;;11.70;86.50;;;;;;5092016;28;20378;-84
2021/08/25 06:11:38;;;;;;;12.13;4.47;;;11.70;86.70;;;;;;5092292;28;20438;-83
2021/08/25 06:14:04;;;;;;;8.38;3.80;;;11.70;86.20;;;;;;5091690;28;20382;-84
2021/08/25 06:16:29;;;;;;;8.63;4.30;;;11.80;86.00;;;;;;5092066;28;20394;-84
2021/08/25 06:18:55;;;;;;;9.90;4.53;;;11.80;85.90;;;;;;5091888;28;20393;-84
2021/08/25 06:21:21;;;;;;;8.87;4.60;;;11.90;86.00;;;;;;5074183;28;20458;-83
2021/08/25 06:23:46;;;;;;;9.13;4.50;;;11.90;86.20;;;;;;5092922;28;20378;-85
2021/08/25 06:26:12;;;;;;;10.60;4.63;;;11.90;86.20;;;;;;5092703;28;20469;-83
2021/08/25 06:28:37;;;;;;;8.00;4.38;;;12.00;86.00;;;;;;5092406;28;20405;-84
2021/08/25 06:31:03;;;;;;;11.13;5.60;;;12.00;86.20;;;;;;5074306;28;20481;-84
2021/08/25 06:33:29;;;;;;;13.97;6.53;;;12.00;85.90;;;;;;5092900;28;20727;-84
2021/08/25 06:35:54;;;;;;;8.67;5.20;;;12.10;86.30;;;;;;5092241;28;20386;-83
2021/08/25 06:38:19;;;;;;;14.97;7.90;;;12.20;87.00;;;;;;5074356;28;20394;-83
2021/08/25 06:40:45;;;;;;;12.85;6.50;;;12.30;86.50;;;;;;5092671;28;20382;-84
2021/08/25 06:43:10;;;;;;;14.03;5.77;;;12.30;86.20;;;;;;5092341;28;20792;-85
2021/08/25 06:45:36;;;;;;;12.13;5.97;;;12.30;86.30;;;;;;5074215;28;20386;-83
2021/08/25 06:48:02;;;;;;;13.05;5.10;;;12.40;86.00;;;;;;5074116;28;20437;-82
2021/08/25 06:50:27;;;;;;;11.15;4.53;;;12.40;86.00;;;;;;5074303;28;20755;-83
2021/08/25 06:52:53;;;;;;;10.90;4.97;;;12.60;85.90;;;;;;5092566;28;20401;-83
2021/08/25 06:55:18;;;;;;;8.33;4.13;;;12.60;86.00;;;;;;5092256;28;20375;-82
2021/08/25 06:57:44;;;;;;;11.68;4.63;;;12.60;85.80;;;;;;5092482;28;20817;-83
2021/08/25 07:00:10;;;;;;;10.63;4.70;;;12.70;85.60;;;;;;5074237;28;20956;-82
2021/08/25 07:02:35;;;;;;;7.57;4.30;;;12.70;85.20;;;;;;5092235;28;20843;-82
2021/08/25 07:05:01;;;;;;;12.40;5.20;;;12.90;85.40;;;;;;5092058;28;20472;-82
2021/08/25 07:07:26;;;;;;;10.17;4.30;;;12.90;84.90;;;;;;5073732;28;20438;-82
2021/08/25 07:09:52;;;;;;;8.05;4.00;;;13.00;84.50;;;;;;5092081;28;20394;-82
2021/08/25 07:12:18;;;;;;;11.97;4.27;;;13.00;84.30;;;;;;5092158;28;20370;-86
2021/08/25 07:14:44;;;;;;;12.80;4.25;;;13.10;84.10;;;;;;5091962;28;20754;-81
2021/08/25 07:17:09;;;;;;;12.40;4.60;;;13.10;84.20;;;;;;5092060;28;20382;-81
2021/08/25 07:19:35;;;;;;;7.20;4.03;;;13.30;83.90;;;;;;5073828;28;20386;-81
2021/08/25 07:22:00;;;;;;;8.20;4.50;;;13.20;84.10;;;;;;5073660;28;20781;-81
2021/08/25 07:24:26;;;;;;;9.82;4.32;;;13.30;83.80;;;;;;5091743;28;20378;-82
2021/08/25 07:26:51;;;;;;;13.07;4.57;;;13.30;83.90;;;;;;5073598;28;20425;-81
2021/08/25 07:29:17;;;;;;;6.67;3.83;;;13.40;82.80;;;;;;5091720;28;20431;-80
2021/08/25 07:31:42;;;;;;;15.03;5.33;;;13.50;82.40;;;;;;5091678;28;20878;-81
2021/08/25 07:34:08;;;;;;;11.18;3.78;;;13.60;82.50;;;;;;5091740;28;20410;-83
2021/08/25 07:36:33;;;;;;;7.77;4.10;;;13.70;82.20;;;;;;5073382;28;20448;-80
2021/08/25 07:38:59;;;;;;;9.33;3.73;;;13.70;81.60;;;;;;5091550;28;20385;-80
2021/08/25 07:41:24;;;;;;;10.80;4.20;;;13.70;82.00;;;;;;5090947;28;20374;-81
2021/08/25 07:43:50;;;;;;;7.20;3.40;;;13.90;81.10;;;;;;5091518;28;20374;-81
2021/08/25 07:46:15;;;;;;;8.30;3.70;;;14.00;79.80;;;;;;5091436;28;20871;-80
2021/08/25 07:48:41;;;;;;;12.30;4.72;;;14.10;79.30;;;;;;5091718;28;20405;-80
2021/08/25 07:51:10;;;;;;;11.20;4.00;;;14.10;79.10;;;;;;5091419;28;20400;-82
2021/08/25 07:53:39;;;;;;;11.20;3.80;;;14.10;80.10;;;;;;5073267;28;20750;-81
2021/08/25 07:56:05;;;;;;;10.65;3.90;;;14.10;79.90;;;;;;5091307;28;20390;-84
2021/08/25 07:58:31;;;;;;;7.70;3.80;;;14.10;79.80;;;;;;5091410;28;20374;-83
2021/08/25 08:00:57;;;;;;;8.55;4.10;;;14.20;81.50;;;;;;5091629;28;20381;-80
2021/08/25 08:03:23;;;;;;;9.52;4.07;;;14.30;80.50;;;;;;5091433;28;20413;-80
2021/08/25 08:05:48;;;;;;;11.90;5.35;;;14.50;81.10;;;;;;5073163;28;20425;-80
2021/08/25 08:08:14;;;;;;;13.30;5.22;;;14.50;81.50;;;;;;5090895;28;20406;-80
2021/08/25 08:10:41;;;;;;;11.25;4.32;;;14.60;80.60;;;;;;5073147;28;20383;-81
2021/08/25 08:13:06;;;;;;;10.30;3.67;;;14.70;79.30;;;;;;5073090;28;20382;-80
2021/08/25 08:15:33;;;;;;;12.07;3.93;;;14.70;79.40;;;;;;5091145;28;20398;-80
2021/08/25 08:18:07;;;;;;;10.35;3.92;;;14.90;79.00;;;;;;5091196;28;20384;-80
2021/08/25 08:20:33;;;;;;;8.93;3.75;;;15.00;77.90;;;;;;5090927;28;20851;-81
2021/08/25 08:22:58;;;;;;;10.75;3.70;;;14.90;77.60;;;;;;5091156;28;20431;-81
2021/08/25 08:25:24;;;;;;;8.63;3.70;;;15.20;77.40;;;;;;5091115;28;20435;-81
2021/08/25 08:27:49;;;;;;;11.73;4.10;;;15.10;78.80;;;;;;5091208;28;20487;-81
2021/08/25 08:30:15;;;;;;;9.13;4.60;;;15.60;76.10;;;;;;5091189;28;20382;-81
2021/08/25 08:32:41;;;;;;;15.15;4.00;;;15.60;77.80;;;;;;5090802;28;20374;-82
2021/08/25 08:35:07;;;;;;;8.23;3.33;;;15.60;76.90;;;;;;5073260;28;20385;-82
2021/08/25 08:37:32;;;;;;;9.50;3.65;;;15.60;77.00;;;;;;5091137;28;20469;-83
2021/08/25 08:39:58;;;;;;;12.65;3.65;;;15.90;75.10;;;;;;5091265;28;20410;-84
2021/08/25 08:42:29;;;;;;;11.25;3.60;;;16.10;71.80;;;;;;5073504;28;20728;-82
2021/08/25 08:44:58;;;;;;;6.68;3.03;;;16.10;72.50;;;;;;5091694;28;20712;-82
2021/08/25 08:47:25;;;;;;;11.30;4.27;;;16.00;74.50;;;;;;5091572;28;20398;-83
2021/08/25 08:49:57;;;;;;;10.02;4.10;;;16.10;73.60;;;;;;5073411;28;20390;-83
2021/08/25 08:52:23;;;;;;;15.63;3.95;;;16.10;73.50;;;;;;5073961;28;20461;-86
2021/08/25 08:54:50;;;;;;;9.57;3.70;;;16.40;73.00;;;;;;5076484;28;20431;-83
2021/08/25 08:57:16;;;;;;;7.30;3.70;;;16.70;72.20;;;;;;5094552;28;20389;-82
2021/08/25 08:59:41;;;;;;;8.93;3.88;;;16.70;70.60;;;;;;5076217;28;20405;-83
2021/08/25 09:02:09;;;;;;;10.87;4.50;;;16.70;74.40;;;;;;5076152;28;20874;-84
2021/08/25 09:04:36;;;;;;;12.23;4.40;;;16.70;71.70;;;;;;5094345;28;20378;-83
2021/08/25 09:07:03;;;;;;;10.57;3.80;;;17.00;73.10;;;;;;5076114;28;20382;-83
2021/08/25 09:09:48;;;;;;;9.30;3.80;;;17.00;72.40;;;;;;5094076;28;20915;-84
2021/08/25 09:12:14;;;;;;;9.32;3.70;;;17.10;69.00;;;;;;5075607;28;20397;-82
2021/08/25 09:14:39;;;;;;;14.63;3.85;;;17.30;68.90;;;;;;5075641;28;20466;-84
2021/08/25 09:17:05;;;;;;;7.47;3.63;;;17.40;69.80;;;;;;5076085;28;20435;-84
2021/08/25 09:19:35;;;;;;;10.90;4.50;;;17.70;69.40;;;;;;5075985;28;20455;-83
2021/08/25 09:22:01;;;;;;;9.40;3.80;;;17.60;66.50;;;;;;5093720;28;20905;-83
2021/08/25 09:24:40;;;;;;;9.90;3.72;;;17.60;65.80;;;;;;5093859;28;20405;-83
2021/08/25 09:27:09;;;;;;;11.98;3.63;;;17.50;66.40;;;;;;5075621;28;20402;-84
2021/08/25 09:29:43;;;;;;;10.63;3.60;;;17.60;66.40;;;;;;5094046;28;20447;-84
2021/08/25 09:32:17;;;;;;;9.60;3.60;;;17.70;66.80;;;;;;5075866;28;20390;-84
2021/08/25 09:34:42;;;;;;;7.05;3.33;;;17.70;66.70;;;;;;5093885;28;20727;-83
2021/08/25 09:37:10;;;;;;;10.38;3.63;;;17.60;66.60;;;;;;5093723;28;20385;-83
2021/08/25 09:39:50;;;;;;;9.48;3.83;;;17.60;65.50;;;;;;5093780;28;20472;-86
2021/08/25 09:42:18;;;;;;;7.88;3.90;;;17.60;63.80;;;;;;5093707;28;20378;-83
2021/08/25 09:44:45;;;;;;;10.93;3.65;;;17.50;64.50;;;;;;5075278;28;20385;-85
2021/08/25 09:47:11;;;;;;;6.47;3.10;;;17.40;62.70;;;;;;5093439;28;20398;-83
2021/08/25 09:49:37;;;;;;;7.00;3.28;;;17.30;66.00;;;;;;5075331;28;20900;-83
2021/08/25 09:52:03;;;;;;;7.43;2.90;;;17.20;68.00;;;;;;5075298;28;20439;-83
2021/08/25 09:54:29;;;;;;;11.93;3.20;;;17.40;68.30;;;;;;5075343;28;20871;-84
2021/08/25 09:56:55;;;;;;;8.87;3.53;;;17.50;64.40;;;;;;5093720;28;20370;-83
2021/08/25 09:59:32;;;;;;;7.18;3.70;;;17.70;62.20;;;;;;5075258;28;20913;-84
2021/08/25 10:02:01;;;;;;;6.95;3.00;;;18.00;61.00;;;;;;5074766;28;20390;-84
2021/08/25 10:04:34;;;;;;;10.05;3.00;;;18.30;57.50;;;;;;5093045;28;20382;-83
2021/08/25 10:07:00;;;;;;;8.27;3.33;;;18.40;60.50;;;;;;5075155;28;20414;-84
2021/08/25 10:09:25;;;;;;;7.27;3.10;;;18.30;57.00;;;;;;5075482;28;20776;-83
2021/08/25 10:11:57;;;;;;;6.03;3.20;;;18.50;56.10;;;;;;5075209;28;20477;-83
2021/08/25 10:14:23;;;;;;;6.63;2.90;;;18.70;58.10;;;;;;5092835;28;20374;-84
2021/08/25 10:16:51;;;;;;;6.75;3.20;;;18.70;58.70;;;;;;5074882;28;20386;-83
2021/08/25 10:19:39;;;;;;;6.35;3.20;;;18.70;60.20;;;;;;5074766;28;20528;-84
2021/08/25 10:22:16;;;;;;;12.35;3.65;;;18.80;61.40;;;;;;5092920;28;20739;-88
2021/08/25 10:24:53;;;;;;;8.02;3.15;;;18.80;62.50;;;;;;5093147;28;20384;-82
2021/08/25 10:27:30;;;;;;;8.67;3.10;;;19.00;58.20;;;;;;5093049;28;20405;-85
2021/08/25 10:30:02;;;;;;;5.63;2.90;;;19.00;59.40;;;;;;5074624;28;20742;-83
2021/08/25 10:32:29;;;;;;;6.38;3.08;;;19.40;60.50;;;;;;5092759;28;20403;-83
2021/08/25 10:35:13;;;;;;;6.25;3.00;;;19.30;57.90;;;;;;5092682;28;20394;-83
2021/08/25 10:37:40;;;;;;;6.00;2.90;;;19.50;57.70;;;;;;5071318;28;20409;-85
2021/08/25 10:40:08;;;;;;;7.32;2.90;;;19.30;56.30;;;;;;5082594;28;20469;-84
2021/08/25 10:42:49;;;;;;;8.95;2.95;;;19.30;61.30;;;;;;5090664;28;20393;-83
2021/08/25 10:45:16;;;;;;;9.50;3.22;;;19.20;57.20;;;;;;5091359;28;20394;-85
2021/08/25 10:48:09;;;;;;;6.93;3.08;;;19.10;56.80;;;;;;5092093;28;20837;-85
2021/08/25 10:50:48;;;;;;;6.07;3.03;;;19.30;55.90;;;;;;5089338;28;20716;-83
2021/08/25 10:53:29;;;;;;;8.23;2.83;;;19.60;58.30;;;;;;5090935;28;20870;-84
2021/08/25 10:56:15;;;;;;;8.77;2.95;;;19.40;59.90;;;;;;5092241;28;20409;-84
2021/08/25 10:58:47;;;;;;;10.70;3.63;;;20.00;56.00;;;;;;5056616;28;20531;-87
2021/08/25 11:01:37;;;;;;;7.10;3.30;;;20.00;56.60;;;;;;5090195;28;20428;-84
2021/08/25 11:04:29;;;;;;;9.20;3.60;;;19.90;56.70;;;;;;5092235;28;20374;-86
2021/08/25 11:06:59;;;;;;;12.10;3.70;;;20.10;55.30;;;;;;5077833;28;20382;-86
2021/08/25 11:09:44;;;;;;;6.53;3.58;;;19.90;55.60;;;;;;5092022;28;20475;-82
2021/08/25 11:12:15;;;;;;;8.23;4.20;;;19.90;52.20;;;;;;5088286;28;20391;-84
2021/08/25 11:14:47;;;;;;;10.18;4.32;;;19.70;54.70;;;;;;5071231;28;20403;-87
2021/08/25 11:17:15;;;;;;;10.07;3.80;;;20.20;55.00;;;;;;5086935;28;20441;-85
2021/08/25 11:19:54;;;;;;;9.93;4.20;;;19.90;54.20;;;;;;5055121;28;20395;-84
2021/08/25 11:22:33;;;;;;;7.30;3.47;;;20.00;54.30;;;;;;5081567;28;20447;-83
2021/08/25 11:25:10;;;;;;;7.95;3.72;;;20.50;58.20;;;;;;5091817;28;20390;-85
2021/08/25 11:27:54;;;;;;;10.40;3.47;;;20.60;54.30;;;;;;5091352;28;20762;-84
2021/08/25 11:30:29;;;;;;;8.93;3.30;;;20.50;55.50;;;;;;5090455;28;20386;-84
2021/08/25 11:33:05;;;;;;;7.60;3.60;;;20.60;56.90;;;;;;5091696;28;20389;-83
2021/08/25 11:35:32;;;;;;;8.70;3.65;;;20.60;53.30;;;;;;5091453;28;20780;-84
2021/08/25 11:38:07;;;;;;;10.50;3.33;;;20.50;55.60;;;;;;5091661;28;20795;-85
2021/08/25 11:40:38;;;;;;;6.35;3.10;;;20.60;57.60;;;;;;5073517;28;20438;-85
2021/08/25 11:43:05;;;;;;;10.00;3.63;;;20.90;59.40;;;;;;5076683;28;20386;-84
2021/08/25 11:45:34;;;;;;;7.90;2.90;;;20.70;54.20;;;;;;5078985;28;20785;-86
2021/08/25 11:48:01;;;;;;;6.45;3.30;;;20.80;55.70;;;;;;5081773;28;20406;-84
2021/08/25 11:50:29;;;;;;;8.73;3.40;;;20.80;54.30;;;;;;5081844;28;20398;-85
2021/08/25 11:52:56;;;;;;;8.70;3.45;;;20.90;57.80;;;;;;5081303;28;20479;-88
2021/08/25 11:55:22;;;;;;;6.45;3.22;;;20.80;51.00;;;;;;5075252;28;20870;-85
2021/08/25 11:57:52;;;;;;;7.53;3.33;;;20.90;51.80;;;;;;5091241;28;20383;-86
2021/08/25 12:00:35;;;;;;;7.60;3.13;;;21.10;53.70;;;;;;5090048;28;20386;-88
2021/08/25 12:03:02;;;;;;;4.65;3.13;;;21.30;53.90;;;;;;5091519;28;20417;-84
2021/08/25 12:05:40;;;;;;;7.75;3.20;;;21.20;54.50;;;;;;5091714;28;20385;-87
2021/08/25 12:08:11;;;;;;;8.18;3.70;;;21.00;51.40;;;;;;5090180;28;20437;-88
2021/08/25 12:10:40;;;;;;;7.25;3.60;;;20.80;50.20;;;;;;5091342;28;20375;-86
2021/08/25 12:13:11;;;;;;;8.40;3.55;;;20.80;50.50;;;;;;5090136;28;20384;-86
2021/08/25 12:15:44;;;;;;;8.63;3.60;;;20.90;52.60;;;;;;5090570;28;20421;-86
2021/08/25 12:18:09;;;;;;;7.35;3.83;;;20.80;53.00;;;;;;5086221;28;20433;-85
2021/08/25 12:20:40;;;;;;;9.82;3.80;;;21.30;49.80;;;;;;5091085;28;20409;-86
2021/08/25 12:23:08;;;;;;;7.80;3.58;;;21.30;51.60;;;;;;5091073;28;20417;-86
2021/08/25 12:25:39;;;;;;;7.40;4.03;;;21.50;52.10;;;;;;5081972;28;20821;-86
2021/08/25 12:28:05;;;;;;;7.15;3.80;;;21.10;51.00;;;;;;5094088;28;20405;-85
2021/08/25 12:30:36;;;;;;;9.82;3.67;;;21.30;52.90;;;;;;5095053;28;20381;-84
2021/08/25 12:33:05;;;;;;;11.00;3.88;;;21.40;52.90;;;;;;5093749;28;20480;-81
2021/08/25 12:35:32;;;;;;;8.63;3.80;;;21.30;52.70;;;;;;5085039;28;20394;-86
2021/08/25 12:37:58;;;;;;;9.23;3.70;;;21.40;56.00;;;;;;5094902;28;20374;-85
2021/08/25 12:40:24;;;;;;;9.45;3.90;;;21.50;53.80;;;;;;5093510;28;20401;-85
2021/08/25 12:42:51;;;;;;;11.30;3.50;;;21.70;52.20;;;;;;5084627;28;20398;-84
2021/08/25 12:45:18;;;;;;;6.70;3.67;;;21.40;52.80;;;;;;5094889;28;20396;-85
2021/08/25 12:47:53;;;;;;;9.38;4.32;;;21.30;50.70;;;;;;5094318;28;20405;-88